Aviation Digital Data Service (ADDS)

Output produced by METARs form (2112 UTC 20 August 2019)
found at http://www.aviationweather.gov/metar/data/
 
Forecast for: VTCN (NAN/MUANG NAN , TH)
Text: TAF VTCN 201700Z 2018/2118 16005KT 9999 BKN025
Forecast period: 1800 UTC 20 August 2019 to 1800 UTC 21 August 2019
Forecast type: FROM: standard forecast or significant change
Winds: from the SSE (160 degrees) at 6 MPH (5 knots; 2.6 m/s)
Visibility: 6 or more miles 10+ km)
Ceiling: 2500 feet AGL
Clouds: broken clouds at 2500 feet AGL
Weather: no significant weather forecast for this period
Text: TEMPO 2107/2113 VRB15G30KT 4000 TSRA FEW018CB BKN035
Forecast period: 0700 to 1300 UTC 21 August 2019
Forecast type: TEMPORARY: The following changes expected for less than half the time period
Winds: variable direction winds at 17 MPH (15 knots; 7.7 m/s)
gusting to 34 MPH (30 knots; 15.4 m/s)
Visibility: 2.49 miles (4.01 km)
Ceiling: 3500 feet AGL
Clouds: few clouds at 1800 feet AGL
broken clouds at 3500 feet AGL
Weather: TSRA  (rain associated with thunderstorm(s))